• Join FlightAware (Why Join?)
  • Login
  • US Flag 
07:26AM EDT


 

Airport Tracker/Info


-or-


 

Live Flight TrackerFlight Track Log ✈ N46265 ✈ 22-Nov-2013 ✈ X23 - X60

Flight Track Log - Related Links

Times and Time Zones

All times are in EST time to prevent confusion due to time zone crossing. See the N46265 flight status page for this flight to view local times or setup timezone preferences in your user account.

Time Position Orientation Groundspeed Altitude Reporting Facility
EST Latitude Longitude Course Direction KTS MPH feet Rate Location/Type
10:49AM 28.9333 -81.7167 360° North 99 114 2,100  Level Orlando TRACON
10:49AM 28.9333 -81.7167 273° West 100 115 2,200 360 Climbing Orlando TRACON
10:50AM 28.9358 -81.7656 273° West 108 124 2,600 420 Climbing Jacksonville Center
10:51AM 28.9425 -81.8036 281° West 106 122 3,200 240 Climbing Jacksonville Center
10:52AM 28.9469 -81.8392 278° West 111 128 3,200  Level Jacksonville Center
10:53AM 28.9536 -81.8769 281° West 115 132 3,200 -60 Level Jacksonville Center
10:54AM 28.9600 -81.9100 282° West 112 129 3,100  Descending Jacksonville Center
10:55AM 28.9644 -81.9456 278° West 107 123 3,200  Climbing Jacksonville Center
10:56AM 28.9606 -81.9789 262° West 110 127 3,200 -60 Level Jacksonville Center
10:57AM 28.9544 -82.0122 258° West 109 125 3,100  Descending Jacksonville Center
10:58AM 28.9506 -82.0503 263° West 111 128 3,200 -60 Climbing Jacksonville Center
10:59AM 28.9447 -82.0858 259° West 110 127 3,000 -360 Descending Jacksonville Center
11:00AM 28.9406 -82.1239 263° West 117 135 2,500 -480 Descending Jacksonville Center
11:01AM 28.9408 -82.1569 271° West 116 133 2,100 -240 Descending Jacksonville Center
11:02AM 28.9472 -82.1925 282° West 116 133 2,100  Level Jacksonville Center
11:03AM 28.9661 -82.2186 310° West 116 133 2,100  Level Jacksonville Center
11:04AM 28.9975 -82.2256 349° North 101 116 2,100 -60 Level Jacksonville Center
11:05AM 29.0247 -82.2253 North 98 113 2,000 -60 Descending Jacksonville Center
11:06AM 29.0519 -82.2297 352° North 93 107 2,000  Level Jacksonville Center
11:07AM 29.0747 -82.2272 North 85 98 2,000 -180 Level Jacksonville Center
11:08AM 29.0978 -82.2247 North 86 99 1,700 -420 Descending Jacksonville Center
11:09AM 29.1292 -82.2247 360° North 95 109 1,200 -600 Descending Jacksonville Center
11:10AM 29.1542 -82.2267 356° North 93 107 500 -120 Descending Jacksonville Center
11:11AM 29.1792 -82.2267 360° North 95 109 1,000 540 Climbing Jacksonville Center
11:13AM 29.2042 -82.2336 346° North 101 116 1,600 540 Climbing Jacksonville Center
11:14AM 29.2064 -82.2644 275° West 106 122 2,100 240 Climbing Jacksonville Center
11:15AM 29.2047 -82.3050 267° West 111 128 2,100  Level Jacksonville Center
11:16AM 29.2028 -82.3431 267° West 118 136 2,100 180 Level Jacksonville Center
11:17AM 29.1967 -82.3739 257° West 111 128 2,500 240 Climbing Jacksonville Center
11:18AM 29.1906 -82.4097 259° West 111 128 2,600  Climbing Jacksonville Center
11:19AM 29.1803 -82.4453 252° West 112 129 2,500 -60 Descending Jacksonville Center
11:20AM 29.1719 -82.4811 255° West 111 128 2,500  Level Jacksonville Center
11:21AM 29.1658 -82.5144 258° West 107 123 2,500  Level Jacksonville Center
11:22AM 29.1553 -82.5478 250° West 106 122 2,500 -60 Level Jacksonville Center
11:23AM 29.1556 -82.5811 271° West 117 135 2,400 -60 Descending Jacksonville Center
11:24AM 29.1786 -82.6047 318° Northwest 111 128 2,400  Level Jacksonville Center
11:25AM 29.2036 -82.6261 323° Northwest 107 123 2,400 -60 Level Jacksonville Center
11:26AM 29.2267 -82.6236 North 98 113 2,300 -120 Descending Jacksonville Center